Time;durP1;ratioP1;P1;durP2;ratioP2;P2;SDS_P1;SDS_P2;PMS_P1;PMS_P2;Temp;Humidity;BMP_temperature;BMP_pressure;BME280_temperature;BME280_humidity;BME280_pressure;Samples;Min_cycle;Max_cycle;Signal;HPM_P1;HPM_P2
2021/09/20 00:01:11;;;;;;;;;;;;;;;;;;3664067;28;133378682;-83
2021/09/20 00:03:37;;;;;;;;;1.00;1.00;;;;;;;;5052480;28;28446;-83
2021/09/20 00:06:02;;;;;;;;;2.00;2.00;;;;;;;;5055784;28;28411;-83
2021/09/20 00:08:28;;;;;;;;;3.67;2.00;;;;;;;;5058594;28;28350;-84
2021/09/20 00:10:53;;;;;;;;;2.00;1.00;;;;;;;;5056170;28;28823;-84
2021/09/20 00:13:18;;;;;;;;;7.50;1.75;;;;;;;;5052680;28;44630;-82
2021/09/20 00:15:43;;;;;;;;;4.50;1.50;;;;;;;;5033016;28;129847;-83
2021/09/20 00:18:09;;;;;;;;;2.00;1.25;;;;;;;;4782918;28;850072;-83
2021/09/20 00:20:34;;;;;;;;;4.00;2.00;;;;;;;;4303866;28;2075939;-83
2021/09/20 00:30:08;;;;;;;;;;;;;;;;;;1552344;28;279076696;-84
2021/09/20 00:33:39;;;;;;;;;0.00;0.00;;;;;;;;174306;28;148050642;-84
2021/09/20 00:36:04;;;;;;;;;0.33;0.33;;;;;;;;3723642;28;15218635;-83
2021/09/20 00:38:29;;;;;;;;;0.75;0.75;;;;;;;;4994647;28;318791;-84
2021/09/20 00:40:54;;;;;;;;;1.00;1.00;;;;;;;;5050941;28;85605;-84
2021/09/20 00:43:20;;;;;;;;;4.00;4.00;;;;;;;;5028235;28;167179;-84
2021/09/20 00:45:45;;;;;;;;;2.50;1.00;;;;;;;;5055480;28;29048;-84
2021/09/20 00:48:10;;;;;;;;;1.00;1.00;;;;;;;;5055364;28;29008;-84
2021/09/20 00:50:36;;;;;;;;;2.00;2.00;;;;;;;;5054918;28;29668;-84
2021/09/20 00:53:01;;;;;;;;;2.00;1.00;;;;;;;;5036626;28;28429;-84
2021/09/20 00:55:27;;;;;;;;;2.00;1.50;;;;;;;;5037671;28;28542;-84
2021/09/20 00:57:52;;;;;;;;;2.00;1.00;;;;;;;;5055922;28;28327;-84
2021/09/20 01:00:18;;;;;;;;;2.75;1.50;;;;;;;;5055971;28;28241;-83
2021/09/20 01:02:43;;;;;;;;;2.25;1.00;;;;;;;;5058112;28;28260;-84
2021/09/20 01:05:09;;;;;;;;;2.00;2.00;;;;;;;;5060767;28;28368;-84
2021/09/20 01:07:35;;;;;;;;;3.00;2.00;;;;;;;;5045281;28;29834;-83
2021/09/20 01:10:00;;;;;;;;;4.75;3.75;;;;;;;;5062148;28;28186;-84
2021/09/20 01:12:27;;;;;;;;;2.00;2.00;;;;;;;;5062528;28;28494;-83
2021/09/20 01:14:54;;;;;;;;;2.00;2.00;;;;;;;;5044078;28;28441;-83
2021/09/20 01:17:19;;;;;;;;;2.50;2.00;;;;;;;;5058707;28;27885;-83
2021/09/20 01:19:44;;;;;;;;;1.33;1.33;;;;;;;;5057993;28;28426;-83
2021/09/20 01:22:13;;;;;;;;;2.00;2.00;;;;;;;;5058279;28;28423;-83
2021/09/20 01:24:39;;;;;;;;;2.00;2.00;;;;;;;;5056897;28;28449;-82
2021/09/20 01:27:05;;;;;;;;;2.00;2.00;;;;;;;;5043829;28;29430;-82
2021/09/20 01:29:31;;;;;;;;;2.00;2.00;;;;;;;;5037139;28;29843;-83
2021/09/20 01:31:57;;;;;;;;;3.75;3.00;;;;;;;;5055063;28;28554;-83
2021/09/20 01:34:24;;;;;;;;;3.00;2.00;;;;;;;;5055515;28;28379;-83
2021/09/20 01:36:51;;;;;;;;;1.00;1.00;;;;;;;;5051387;28;28580;-82
2021/09/20 01:39:17;;;;;;;;;2.00;2.00;;;;;;;;5054782;28;28370;-82
2021/09/20 01:41:43;;;;;;;;;1.50;1.00;;;;;;;;5040953;28;29465;-82
2021/09/20 01:44:08;;;;;;;;;2.00;2.00;;;;;;;;5054864;28;28486;-82
2021/09/20 01:46:33;;;;;;;;;3.00;1.00;;;;;;;;5055083;28;28331;-82
2021/09/20 01:48:59;;;;;;;;;2.00;2.00;;;;;;;;5055296;28;29790;-82
2021/09/20 01:51:24;;;;;;;;;2.00;2.00;;;;;;;;5059373;28;28496;-82
2021/09/20 01:53:50;;;;;;;;;3.00;2.00;;;;;;;;5062501;28;28666;-82
2021/09/20 01:56:15;;;;;;;;;5.33;3.67;;;;;;;;5058726;28;28338;-82
2021/09/20 01:58:40;;;;;;;;;2.00;1.00;;;;;;;;5057213;28;29711;-82
2021/09/20 02:01:05;;;;;;;;;4.00;1.67;;;;;;;;5047728;28;28515;-82
2021/09/20 02:03:30;;;;;;;;;2.33;2.33;;;;;;;;5040724;28;28637;-82
2021/09/20 02:05:56;;;;;;;;;2.33;1.33;;;;;;;;5058203;28;28611;-82
2021/09/20 02:08:24;;;;;;;;;4.00;2.00;;;;;;;;5039027;28;29753;-82
2021/09/20 02:10:49;;;;;;;;;3.50;2.75;;;;;;;;5055601;28;28406;-82
2021/09/20 02:13:14;;;;;;;;;4.50;2.00;;;;;;;;5058160;28;28327;-82
2021/09/20 02:15:40;;;;;;;;;2.00;2.00;;;;;;;;5058341;28;28426;-82
2021/09/20 02:18:05;;;;;;;;;3.50;2.50;;;;;;;;5058529;28;28325;-82
2021/09/20 02:20:30;;;;;;;;;2.00;1.00;;;;;;;;5042348;28;28960;-82
2021/09/20 02:22:55;;;;;;;;;3.67;2.00;;;;;;;;5057726;28;28417;-82
2021/09/20 02:25:21;;;;;;;;;3.75;2.75;;;;;;;;5061959;28;29547;-82
2021/09/20 02:27:46;;;;;;;;;4.00;3.00;;;;;;;;5064570;28;29896;-82
2021/09/20 02:30:12;;;;;;;;;3.67;2.00;;;;;;;;5061972;28;28337;-82
2021/09/20 02:32:37;;;;;;;;;3.25;2.00;;;;;;;;5060978;28;28407;-82
2021/09/20 02:35:03;;;;;;;;;3.00;2.00;;;;;;;;5031771;28;28395;-82
2021/09/20 02:37:28;;;;;;;;;4.00;4.00;;;;;;;;5083780;27;31547;-82
2021/09/20 02:39:53;;;;;;;;;4.00;3.00;;;;;;;;5050104;28;28636;-82
2021/09/20 02:42:18;;;;;;;;;4.00;2.00;;;;;;;;5057859;28;32877;-82
2021/09/20 02:44:43;;;;;;;;;3.00;2.00;;;;;;;;5057558;28;28666;-82
2021/09/20 02:47:11;;;;;;;;;3.67;3.00;;;;;;;;5057695;28;29137;-82
2021/09/20 02:49:36;;;;;;;;;2.00;2.00;;;;;;;;5055955;28;44186;-82
2021/09/20 02:52:02;;;;;;;;;4.00;3.00;;;;;;;;5056880;28;44614;-82
2021/09/20 02:54:27;;;;;;;;;3.50;3.00;;;;;;;;5055509;28;42607;-82
2021/09/20 02:56:52;;;;;;;;;2.25;2.00;;;;;;;;5046149;28;48200;-82
2021/09/20 02:59:18;;;;;;;;;2.00;2.00;;;;;;;;5042338;28;45530;-82
2021/09/20 03:01:43;;;;;;;;;3.00;3.00;;;;;;;;5041750;28;45409;-81
2021/09/20 03:04:08;;;;;;;;;3.25;2.00;;;;;;;;5024580;28;45605;-82
2021/09/20 03:06:33;;;;;;;;;2.75;2.00;;;;;;;;5043351;28;45518;-82
2021/09/20 03:08:58;;;;;;;;;2.33;2.33;;;;;;;;5043792;28;45442;-82
2021/09/20 03:11:24;;;;;;;;;1.67;1.67;;;;;;;;5046529;28;45325;-82
2021/09/20 03:13:49;;;;;;;;;2.75;2.00;;;;;;;;5044570;28;45386;-82
2021/09/20 03:16:14;;;;;;;;;6.00;3.00;;;;;;;;5046091;28;46250;-82
2021/09/20 03:18:39;;;;;;;;;2.00;2.00;;;;;;;;5034153;28;46161;-82
2021/09/20 03:21:05;;;;;;;;;2.75;2.75;;;;;;;;5046665;28;45348;-82
2021/09/20 03:23:30;;;;;;;;;3.00;3.00;;;;;;;;5039298;28;45345;-82
2021/09/20 03:25:55;;;;;;;;;4.00;3.00;;;;;;;;5042357;28;45379;-81
2021/09/20 03:28:20;;;;;;;;;2.00;2.00;;;;;;;;5039925;28;45364;-82
2021/09/20 03:30:46;;;;;;;;;3.67;2.67;;;;;;;;5037220;28;45517;-82
2021/09/20 03:33:11;;;;;;;;;2.00;2.00;;;;;;;;5041491;28;45605;-82
2021/09/20 03:35:36;;;;;;;;;3.00;3.00;;;;;;;;5041225;28;45451;-82
2021/09/20 03:38:01;;;;;;;;;2.00;2.00;;;;;;;;5041868;28;45390;-82
2021/09/20 03:40:26;;;;;;;;;4.50;2.50;;;;;;;;5041555;28;45300;-82
2021/09/20 03:42:52;;;;;;;;;3.00;3.00;;;;;;;;5041702;28;45361;-82
2021/09/20 03:45:17;;;;;;;;;4.00;2.50;;;;;;;;5041210;28;45374;-82
2021/09/20 03:47:42;;;;;;;;;5.00;2.00;;;;;;;;5040942;28;45311;-82
2021/09/20 03:50:08;;;;;;;;;3.50;3.50;;;;;;;;5041332;28;45542;-82
2021/09/20 03:52:33;;;;;;;;;4.50;2.00;;;;;;;;5037549;28;45337;-82
2021/09/20 03:54:59;;;;;;;;;4.00;2.75;;;;;;;;5038568;28;45493;-82
2021/09/20 03:57:24;;;;;;;;;4.00;3.00;;;;;;;;5039420;28;45426;-81
2021/09/20 03:59:49;;;;;;;;;4.00;3.00;;;;;;;;5041559;28;45404;-82
2021/09/20 04:02:14;;;;;;;;;2.25;2.00;;;;;;;;5028721;28;45587;-81
2021/09/20 04:04:40;;;;;;;;;5.00;3.33;;;;;;;;5031991;28;47134;-82
2021/09/20 04:07:06;;;;;;;;;4.00;3.00;;;;;;;;5044551;28;45320;-82
2021/09/20 04:09:32;;;;;;;;;5.00;3.00;;;;;;;;5044817;28;45489;-82
2021/09/20 04:11:57;;;;;;;;;3.00;3.00;;;;;;;;5042086;28;45431;-82
2021/09/20 04:14:22;;;;;;;;;3.00;3.00;;;;;;;;5043362;28;47181;-83
2021/09/20 04:16:47;;;;;;;;;3.25;3.00;;;;;;;;5041819;28;45510;-82
2021/09/20 04:19:13;;;;;;;;;2.00;2.00;;;;;;;;5040554;28;45329;-82
2021/09/20 04:21:38;;;;;;;;;4.00;3.00;;;;;;;;5028072;28;45970;-82
2021/09/20 04:24:03;;;;;;;;;6.00;3.75;;;;;;;;5040117;28;45354;-82
2021/09/20 04:26:28;;;;;;;;;4.50;3.00;;;;;;;;5040046;28;45474;-82
2021/09/20 04:28:54;;;;;;;;;3.50;2.75;;;;;;;;5035521;28;45426;-83
2021/09/20 04:31:19;;;;;;;;;3.25;3.00;;;;;;;;5040222;28;45257;-83
2021/09/20 04:33:44;;;;;;;;;5.50;3.00;;;;;;;;5042689;28;46392;-83
2021/09/20 04:36:09;;;;;;;;;5.00;3.33;;;;;;;;5022277;28;45450;-82
2021/09/20 04:38:35;;;;;;;;;3.00;3.00;;;;;;;;5040170;28;45375;-82
2021/09/20 04:41:00;;;;;;;;;4.75;3.75;;;;;;;;5041022;28;45433;-83
2021/09/20 04:43:25;;;;;;;;;3.50;3.00;;;;;;;;5041801;28;45407;-82
2021/09/20 04:45:50;;;;;;;;;3.00;3.00;;;;;;;;5026728;28;45329;-83
2021/09/20 04:48:16;;;;;;;;;4.25;3.00;;;;;;;;5045114;28;45414;-82
2021/09/20 04:50:42;;;;;;;;;3.00;3.00;;;;;;;;5034942;28;45959;-82
2021/09/20 04:53:08;;;;;;;;;2.00;2.00;;;;;;;;5029124;28;46512;-82
2021/09/20 04:55:34;;;;;;;;;2.00;2.00;;;;;;;;5027676;28;45699;-83
2021/09/20 04:58:02;;;;;;;;;3.25;2.00;;;;;;;;5036556;28;45314;-83
2021/09/20 05:00:28;;;;;;;;;3.50;3.00;;;;;;;;5027520;28;45452;-83
2021/09/20 05:02:53;;;;;;;;;3.00;2.00;;;;;;;;5040033;28;45642;-83
2021/09/20 05:05:18;;;;;;;;;2.00;2.00;;;;;;;;5039678;28;45672;-83
2021/09/20 05:07:43;;;;;;;;;3.33;2.00;;;;;;;;5039954;28;45497;-83
2021/09/20 05:10:09;;;;;;;;;6.00;3.00;;;;;;;;5061392;28;45433;-83
2021/09/20 05:12:34;;;;;;;;;2.00;2.00;;;;;;;;5041825;28;45449;-83
2021/09/20 05:14:59;;;;;;;;;3.50;2.00;;;;;;;;5024713;28;45336;-82
2021/09/20 05:17:25;;;;;;;;;4.67;2.00;;;;;;;;5029333;28;45493;-82
2021/09/20 05:19:50;;;;;;;;;3.00;2.00;;;;;;;;5041511;28;45304;-83
2021/09/20 05:22:15;;;;;;;;;3.00;3.00;;;;;;;;5021832;28;47308;-82
2021/09/20 05:24:40;;;;;;;;;4.00;3.00;;;;;;;;5022045;28;45841;-83
2021/09/20 05:27:06;;;;;;;;;3.00;2.50;;;;;;;;5025279;28;45578;-83
2021/09/20 05:29:31;;;;;;;;;3.00;3.00;;;;;;;;5044407;28;45418;-83
2021/09/20 05:31:56;;;;;;;;;5.00;3.00;;;;;;;;5041389;28;48217;-83
2021/09/20 05:34:22;;;;;;;;;4.00;3.00;;;;;;;;5043680;28;45192;-83
2021/09/20 05:36:48;;;;;;;;;6.50;3.75;;;;;;;;5040898;28;45177;-83
2021/09/20 05:39:13;;;;;;;;;5.75;4.50;;;;;;;;5039611;28;45641;-83
2021/09/20 05:41:38;;;;;;;;;5.75;4.00;;;;;;;;5037709;28;46955;-84
2021/09/20 05:44:04;;;;;;;;;5.33;4.00;;;;;;;;5056638;28;45423;-83
2021/09/20 05:46:29;;;;;;;;;10.00;6.75;;;;;;;;5056061;28;45315;-83
2021/09/20 05:48:54;;;;;;;;;7.75;6.00;;;;;;;;5050985;28;44841;-83
2021/09/20 05:51:20;;;;;;;;;7.00;5.33;;;;;;;;5042004;28;45889;-82
2021/09/20 05:53:45;;;;;;;;;6.67;6.00;;;;;;;;5038952;28;45354;-84
2021/09/20 05:56:11;;;;;;;;;9.00;6.00;;;;;;;;5039641;28;45429;-84
2021/09/20 05:58:36;;;;;;;;;6.00;6.00;;;;;;;;5039703;28;45430;-84
2021/09/20 06:01:01;;;;;;;;;5.00;5.00;;;;;;;;5023095;28;47060;-82
2021/09/20 06:03:27;;;;;;;;;7.00;6.50;;;;;;;;5043034;28;44777;-84
2021/09/20 06:05:52;;;;;;;;;8.25;6.25;;;;;;;;5043304;28;45348;-84
2021/09/20 06:08:17;;;;;;;;;10.00;7.67;;;;;;;;5042720;28;45428;-85
2021/09/20 06:10:43;;;;;;;;;11.00;6.67;;;;;;;;5043252;28;45426;-83
2021/09/20 06:13:08;;;;;;;;;10.33;8.67;;;;;;;;5042511;28;44800;-84
2021/09/20 06:15:34;;;;;;;;;7.50;7.00;;;;;;;;5024536;28;45388;-83
2021/09/20 06:17:59;;;;;;;;;12.75;8.25;;;;;;;;5026760;28;45838;-84
2021/09/20 06:20:25;;;;;;;;;10.25;8.50;;;;;;;;5031635;28;45359;-83
2021/09/20 06:22:50;;;;;;;;;11.25;10.75;;;;;;;;5036937;28;45290;-85
2021/09/20 06:25:15;;;;;;;;;9.00;9.00;;;;;;;;5019245;28;45439;-85
2021/09/20 06:27:41;;;;;;;;;12.50;10.75;;;;;;;;5037155;28;45253;-85
2021/09/20 06:30:07;;;;;;;;;11.75;9.75;;;;;;;;5037754;28;45650;-85
2021/09/20 06:32:32;;;;;;;;;11.00;10.00;;;;;;;;5037158;28;45608;-85
2021/09/20 06:34:58;;;;;;;;;11.50;10.00;;;;;;;;5037587;28;45286;-86
2021/09/20 06:37:23;;;;;;;;;17.67;10.67;;;;;;;;5038462;28;45769;-81
2021/09/20 06:39:48;;;;;;;;;12.50;9.75;;;;;;;;5040802;28;46368;-79
2021/09/20 06:42:15;;;;;;;;;15.75;13.50;;;;;;;;5039728;28;46028;-83
2021/09/20 06:44:40;;;;;;;;;18.00;14.00;;;;;;;;5039464;28;45337;-81
2021/09/20 06:47:07;;;;;;;;;15.00;12.75;;;;;;;;5023959;28;45791;-83
2021/09/20 06:49:32;;;;;;;;;14.25;10.75;;;;;;;;5039020;28;46307;-84
2021/09/20 06:51:57;;;;;;;;;17.50;14.25;;;;;;;;5039830;28;45720;-82
2021/09/20 06:54:22;;;;;;;;;12.67;10.67;;;;;;;;5039100;28;45505;-83
2021/09/20 06:56:48;;;;;;;;;14.67;12.00;;;;;;;;5041453;28;45472;-82
2021/09/20 06:59:14;;;;;;;;;16.00;14.00;;;;;;;;5041037;28;45399;-83
2021/09/20 07:01:39;;;;;;;;;18.50;15.75;;;;;;;;5022621;28;45453;-83
2021/09/20 07:04:04;;;;;;;;;20.75;15.25;;;;;;;;5037024;28;45456;-83
2021/09/20 07:06:30;;;;;;;;;13.00;11.33;;;;;;;;5037562;28;45602;-83
2021/09/20 07:08:55;;;;;;;;;15.25;13.00;;;;;;;;5041424;28;46331;-85
2021/09/20 07:11:23;;;;;;;;;15.50;15.50;;;;;;;;5023089;28;45455;-86
2021/09/20 07:13:48;;;;;;;;;15.75;13.25;;;;;;;;5036311;28;46505;-86
2021/09/20 07:16:13;;;;;;;;;18.33;14.00;;;;;;;;5023100;28;45608;-87
2021/09/20 07:18:39;;;;;;;;;14.25;12.50;;;;;;;;5038956;28;45415;-87
2021/09/20 07:21:04;;;;;;;;;15.50;11.75;;;;;;;;5037349;28;45308;-86
2021/09/20 07:23:29;;;;;;;;;14.00;13.00;;;;;;;;5036364;28;46569;-87
2021/09/20 07:25:55;;;;;;;;;14.50;13.00;;;;;;;;5019011;28;45471;-87
2021/09/20 07:28:20;;;;;;;;;17.50;14.00;;;;;;;;5038136;28;45637;-87
2021/09/20 07:30:45;;;;;;;;;15.00;15.00;;;;;;;;5033912;28;45769;-87
2021/09/20 07:33:11;;;;;;;;;22.25;17.75;;;;;;;;5020768;28;45265;-88
2021/09/20 07:35:36;;;;;;;;;29.00;19.75;;;;;;;;5039871;28;45453;-86
2021/09/20 07:38:01;;;;;;;;;22.50;18.25;;;;;;;;5037947;28;46317;-81
2021/09/20 07:40:27;;;;;;;;;22.50;18.50;;;;;;;;5019920;28;45414;-82
2021/09/20 07:42:54;;;;;;;;;21.50;15.25;;;;;;;;5021500;28;45570;-83
2021/09/20 07:45:19;;;;;;;;;19.00;15.00;;;;;;;;5040231;28;45981;-83
2021/09/20 07:47:45;;;;;;;;;11.25;9.50;;;;;;;;5039356;28;46694;-83
2021/09/20 07:50:11;;;;;;;;;19.75;15.75;;;;;;;;5040175;28;45544;-83
2021/09/20 07:52:37;;;;;;;;;20.00;15.25;;;;;;;;5038676;28;45428;-83
2021/09/20 07:55:05;;;;;;;;;17.00;14.50;;;;;;;;5041872;28;46529;-83
2021/09/20 07:57:31;;;;;;;;;17.50;15.50;;;;;;;;5023343;28;47287;-83
2021/09/20 07:59:56;;;;;;;;;19.00;15.25;;;;;;;;5040515;28;45564;-83
2021/09/20 08:02:21;;;;;;;;;18.00;14.75;;;;;;;;5037435;28;45370;-84
2021/09/20 08:04:47;;;;;;;;;18.75;14.00;;;;;;;;5021979;28;45589;-83
2021/09/20 08:07:12;;;;;;;;;18.50;14.25;;;;;;;;5038889;28;45560;-83
2021/09/20 08:09:37;;;;;;;;;16.25;11.50;;;;;;;;5025005;28;45490;-83
2021/09/20 08:12:03;;;;;;;;;12.75;11.00;;;;;;;;5030984;28;45494;-83
2021/09/20 08:14:28;;;;;;;;;14.00;13.00;;;;;;;;5041578;28;45394;-83
2021/09/20 08:16:53;;;;;;;;;15.25;12.50;;;;;;;;5032020;28;48044;-84
2021/09/20 08:19:19;;;;;;;;;11.00;10.25;;;;;;;;5038389;28;45361;-83
2021/09/20 08:21:44;;;;;;;;;14.25;11.50;;;;;;;;5039003;28;45450;-83
2021/09/20 08:24:10;;;;;;;;;9.50;9.25;;;;;;;;5036936;28;45511;-83
2021/09/20 08:26:35;;;;;;;;;14.25;11.25;;;;;;;;5038129;28;45503;-83
2021/09/20 08:29:01;;;;;;;;;16.50;11.25;;;;;;;;5023266;28;46317;-83
2021/09/20 08:31:26;;;;;;;;;14.25;12.25;;;;;;;;5042934;28;45508;-84
2021/09/20 08:33:51;;;;;;;;;14.50;12.50;;;;;;;;5040884;28;46009;-84
2021/09/20 08:36:18;;;;;;;;;11.00;11.00;;;;;;;;5041649;28;46459;-84
2021/09/20 08:38:43;;;;;;;;;11.75;10.00;;;;;;;;5043474;28;45408;-84
2021/09/20 08:41:09;;;;;;;;;16.50;12.00;;;;;;;;5042501;28;45488;-84
2021/09/20 08:43:34;;;;;;;;;12.75;9.75;;;;;;;;5043608;28;45175;-84
2021/09/20 08:46:01;;;;;;;;;18.00;14.50;;;;;;;;5040563;28;45496;-84
2021/09/20 08:48:27;;;;;;;;;16.75;13.50;;;;;;;;5039551;28;46575;-84
2021/09/20 08:50:53;;;;;;;;;18.75;13.50;;;;;;;;5039000;28;45530;-83
2021/09/20 08:53:18;;;;;;;;;16.25;13.75;;;;;;;;5039227;28;45497;-84
2021/09/20 08:55:43;;;;;;;;;15.25;12.75;;;;;;;;5024424;28;45451;-83
2021/09/20 08:58:09;;;;;;;;;11.75;10.00;;;;;;;;5022711;28;45370;-83
2021/09/20 09:00:34;;;;;;;;;12.25;11.75;;;;;;;;5039108;28;45454;-83
2021/09/20 09:03:02;;;;;;;;;12.75;12.75;;;;;;;;5029412;28;45478;-84
2021/09/20 09:05:29;;;;;;;;;18.75;15.25;;;;;;;;5024640;28;47183;-83
2021/09/20 09:07:58;;;;;;;;;13.00;11.00;;;;;;;;5040820;28;45632;-83
2021/09/20 09:10:26;;;;;;;;;22.00;14.25;;;;;;;;5056967;28;45425;-83
2021/09/20 09:12:52;;;;;;;;;18.50;11.75;;;;;;;;5028318;28;45297;-83
2021/09/20 09:15:18;;;;;;;;;14.25;13.00;;;;;;;;5042100;28;45383;-83
2021/09/20 09:17:46;;;;;;;;;14.25;14.00;;;;;;;;5041898;28;45454;-82
2021/09/20 09:20:19;;;;;;;;;13.75;12.50;;;;;;;;5025008;28;45450;-83
2021/09/20 09:22:44;;;;;;;;;15.25;12.50;;;;;;;;5042825;28;45645;-83
2021/09/20 09:25:11;;;;;;;;;16.50;13.00;;;;;;;;5030191;28;47127;-83
2021/09/20 09:27:37;;;;;;;;;14.00;13.25;;;;;;;;5020281;28;46154;-82
2021/09/20 09:30:02;;;;;;;;;14.75;12.00;;;;;;;;5040130;28;45499;-83
2021/09/20 09:32:28;;;;;;;;;16.00;12.00;;;;;;;;5038897;28;45747;-83
2021/09/20 09:34:55;;;;;;;;;16.00;14.75;;;;;;;;5027656;28;47101;-83
2021/09/20 09:37:20;;;;;;;;;15.50;11.25;;;;;;;;5038208;28;45382;-83
2021/09/20 09:39:45;;;;;;;;;14.75;11.50;;;;;;;;5034308;28;45339;-83
2021/09/20 09:42:22;;;;;;;;;10.75;10.75;;;;;;;;5029948;28;45527;-83
2021/09/20 09:44:47;;;;;;;;;9.75;8.25;;;;;;;;5043265;28;45560;-83
2021/09/20 09:47:22;;;;;;;;;9.25;8.75;;;;;;;;5043085;28;45281;-83
2021/09/20 09:49:48;;;;;;;;;13.00;11.00;;;;;;;;5037229;28;45343;-82
2021/09/20 09:52:20;;;;;;;;;21.50;18.50;;;;;;;;5042484;28;45208;-82
2021/09/20 09:54:46;;;;;;;;;17.25;15.00;;;;;;;;5040719;28;45405;-83
2021/09/20 09:57:11;;;;;;;;;18.50;14.00;;;;;;;;5042751;28;45642;-83
2021/09/20 09:59:37;;;;;;;;;17.00;13.50;;;;;;;;5041679;28;45240;-83
2021/09/20 10:02:35;;;;;;;;;14.50;13.25;;;;;;;;5032993;28;45492;-83
2021/09/20 10:05:02;;;;;;;;;16.25;12.00;;;;;;;;5015626;28;46263;-83
2021/09/20 10:07:29;;;;;;;;;16.25;11.50;;;;;;;;5038484;28;45510;-83
2021/09/20 10:09:55;;;;;;;;;15.50;12.75;;;;;;;;5037529;28;45335;-83
2021/09/20 10:12:22;;;;;;;;;17.25;14.50;;;;;;;;5020681;28;45697;-85
2021/09/20 10:14:48;;;;;;;;;16.25;13.00;;;;;;;;5040508;28;45404;-83
2021/09/20 10:17:18;;;;;;;;;14.00;13.25;;;;;;;;5037310;28;45398;-84
2021/09/20 10:19:44;;;;;;;;;13.00;10.25;;;;;;;;5039471;28;45469;-83
2021/09/20 10:22:09;;;;;;;;;15.75;11.50;;;;;;;;5032427;28;45422;-85
2021/09/20 10:24:34;;;;;;;;;10.00;10.00;;;;;;;;5040722;28;46141;-83
2021/09/20 10:27:00;;;;;;;;;16.00;10.00;;;;;;;;5040231;28;45501;-82
2021/09/20 10:29:25;;;;;;;;;13.50;11.75;;;;;;;;5040636;28;45355;-83
2021/09/20 10:31:51;;;;;;;;;14.00;9.00;;;;;;;;5039985;28;45532;-84
2021/09/20 10:34:20;;;;;;;;;16.25;14.50;;;;;;;;5038793;28;46706;-84
2021/09/20 10:36:52;;;;;;;;;20.25;13.50;;;;;;;;5045733;28;45154;-84
2021/09/20 10:39:18;;;;;;;;;16.00;12.75;;;;;;;;5034191;28;45347;-84
2021/09/20 10:41:44;;;;;;;;;17.50;15.00;;;;;;;;5040489;28;45324;-83
2021/09/20 10:44:12;;;;;;;;;16.00;13.50;;;;;;;;5039276;28;46366;-83
2021/09/20 10:47:02;;;;;;;;;15.50;11.75;;;;;;;;5045167;28;45453;-84
2021/09/20 10:49:29;;;;;;;;;19.25;15.00;;;;;;;;5052217;28;45451;-82
2021/09/20 10:52:02;;;;;;;;;20.75;17.75;;;;;;;;5043902;28;45527;-82
2021/09/20 10:54:27;;;;;;;;;18.00;16.25;;;;;;;;5030211;28;46242;-83
2021/09/20 10:57:08;;;;;;;;;26.33;18.00;;;;;;;;5032595;28;45504;-84
2021/09/20 10:59:34;;;;;;;;;17.50;14.25;;;;;;;;5056668;28;45479;-86
2021/09/20 11:02:16;;;;;;;;;18.25;14.00;;;;;;;;5026580;28;45522;-85
2021/09/20 11:04:50;;;;;;;;;15.25;14.00;;;;;;;;5041179;28;46740;-84
2021/09/20 11:07:36;;;;;;;;;;;;;;;;;;;;;
2021/09/20 11:10:29;;;;;;;;;;;;;;;;;;;;;
2021/09/20 11:13:26;;;;;;;;;19.75;15.50;;;;;;;;5038429;28;71499;-85
2021/09/20 11:16:04;;;;;;;;;21.75;17.25;;;;;;;;5037641;28;45543;-84
2021/09/20 11:19:11;;;;;;;;;;;;;;;;;;;;;
2021/09/20 11:22:15;;;;;;;;;;;;;;;;;;;;;
2021/09/20 11:25:02;;;;;;;;;;;;;;;;;;;;;
2021/09/20 11:27:54;;;;;;;;;16.25;14.50;;;;;;;;5031023;28;75452;-84
2021/09/20 11:30:37;;;;;;;;;;;;;;;;;;;;;
2021/09/20 11:33:20;;;;;;;;;;;;;;;;;;;;;
2021/09/20 11:35:58;;;;;;;;;;;;;;;;;;;;;
2021/09/20 11:39:00;;;;;;;;;48.00;35.50;;;;;;;;5040214;28;75853;-84
2021/09/20 11:45:04;;;;;;;;;;;;;;;;;;;;;
2021/09/20 11:50:59;;;;;;;;;20.00;17.00;;;;;;;;5026998;28;46906;-84
2021/09/20 11:56:53;;;;;;;;;;;;;;;;;;;;;
2021/09/20 12:02:44;;;;;;;;;;;;;;;;;;;;;
2021/09/20 12:11:56;;;;;;;;;;;;;;;;;;;;;
2021/09/20 12:14:34;;;;;;;;;16.50;13.50;;;;;;;;5029130;28;47068;-84
2021/09/20 12:23:07;;;;;;;;;;;;;;;;;;;;;
2021/09/20 12:25:56;;;;;;;;;14.00;13.50;;;;;;;;5040063;28;75490;-85
2021/09/20 12:31:28;;;;;;;;;;;;;;;;;;;;;
2021/09/20 12:34:27;;;;;;;;;;;;;;;;;;;;;
2021/09/20 12:37:26;;;;;;;;;;;;;;;;;;;;;
2021/09/20 12:40:25;;;;;;;;;;;;;;;;;;;;;
2021/09/20 12:42:49;;;;;;;;;;;;;;;;;;;;;
2021/09/20 12:45:48;;;;;;;;;;;;;;;;;;;;;
2021/09/20 12:48:32;;;;;;;;;17.50;14.00;;;;;;;;5037716;28;74428;-85
2021/09/20 12:51:11;;;;;;;;;;;;;;;;;;;;;
2021/09/20 13:00:36;;;;;;;;;;;;;;;;;;;;;
2021/09/20 13:03:18;;;;;;;;;;;;;;;;;;;;;
2021/09/20 13:06:05;;;;;;;;;;;;;;;;;;;;;
2021/09/20 13:08:58;;;;;;;;;10.50;10.25;;;;;;;;5039345;28;72854;-85
2021/09/20 13:11:47;;;;;;;;;;;;;;;;;;;;;
2021/09/20 13:14:44;;;;;;;;;;;;;;;;;;;;;
2021/09/20 13:17:25;;;;;;;;;;;;;;;;;;;;;
2021/09/20 13:26:32;;;;;;;;;11.75;11.00;;;;;;;;5022855;28;45537;-85
2021/09/20 13:29:16;;;;;;;;;;;;;;;;;;;;;
2021/09/20 13:32:13;;;;;;;;;10.50;9.25;;;;;;;;5032391;28;72888;-85
2021/09/20 13:41:23;;;;;;;;;;;;;;;;;;;;;
2021/09/20 13:46:56;;;;;;;;;;;;;;;;;;;;;
2021/09/20 13:49:44;;;;;;;;;9.75;9.00;;;;;;;;5040576;28;72012;-84
2021/09/20 13:53:01;;;;;;;;;;;;;;;;;;;;;
2021/09/20 14:04:36;;;;;;;;;;;;;;;;;;;;;
2021/09/20 14:07:19;;;;;;;;;;;;;;;;;;;;;
2021/09/20 14:13:32;;;;;;;;;8.00;7.25;;;;;;;;5031706;28;45458;-84
2021/09/20 14:25:36;;;;;;;;;;;;;;;;;;;;;
2021/09/20 14:34:11;;;;;;;;;;;;;;;;;;;;;
2021/09/20 14:37:06;;;;;;;;;;;;;;;;;;;;;
2021/09/20 14:39:34;;;;;;;;;29.50;23.50;;;;;;;;5040131;28;68826;-84
2021/09/20 14:42:03;;;;;;;;;18.50;15.50;;;;;;;;5042484;28;45403;-84
2021/09/20 14:45:17;;;;;;;;;10.50;10.25;;;;;;;;5041844;28;46582;-84
2021/09/20 14:47:55;;;;;;;;;8.50;8.50;;;;;;;;5035675;28;45387;-84
2021/09/20 14:50:59;;;;;;;;;;;;;;;;;;;;;
2021/09/20 14:56:52;;;;;;;;;;;;;;;;;;;;;
2021/09/20 15:05:45;;;;;;;;;8.25;8.00;;;;;;;;5023477;28;45612;-84
2021/09/20 15:08:47;;;;;;;;;7.00;7.00;;;;;;;;5037992;28;45519;-83
2021/09/20 15:11:06;;;;;;;;;9.00;7.00;;;;;;;;5035406;28;45398;-82
2021/09/20 15:13:46;;;;;;;;;10.25;7.25;;;;;;;;5025137;28;45364;-83
2021/09/20 15:16:25;;;;;;;;;;;;;;;;;;;;;
2021/09/20 15:18:51;;;;;;;;;7.00;7.00;;;;;;;;5041696;28;76208;-84
2021/09/20 15:21:19;;;;;;;;;7.75;7.00;;;;;;;;5043753;28;45347;-84
2021/09/20 15:23:45;;;;;;;;;5.00;5.00;;;;;;;;5041990;28;45863;-83
2021/09/20 15:26:30;;;;;;;;;;;;;;;;;;;;;
2021/09/20 15:28:58;;;;;;;;;7.00;7.00;;;;;;;;5038600;28;75444;-83
2021/09/20 15:31:30;;;;;;;;;8.25;7.00;;;;;;;;5023443;28;45311;-83
2021/09/20 15:34:00;;;;;;;;;7.25;5.00;;;;;;;;5039947;28;45384;-84
2021/09/20 15:36:35;;;;;;;;;5.75;5.00;;;;;;;;5037786;28;45367;-83
2021/09/20 15:39:23;;;;;;;;;8.00;7.00;;;;;;;;5038353;28;47472;-84
2021/09/20 15:41:49;;;;;;;;;7.00;6.00;;;;;;;;5024852;28;45699;-83
2021/09/20 15:44:14;;;;;;;;;6.25;6.25;;;;;;;;5040103;28;45469;-86
2021/09/20 15:46:41;;;;;;;;;5.75;5.75;;;;;;;;5039901;28;45429;-83
2021/09/20 15:49:06;;;;;;;;;6.75;5.50;;;;;;;;5025295;28;47404;-84
2021/09/20 15:51:31;;;;;;;;;6.00;6.00;;;;;;;;5029119;28;45477;-84
2021/09/20 15:53:57;;;;;;;;;7.00;5.25;;;;;;;;5040153;28;45373;-83
2021/09/20 15:56:22;;;;;;;;;8.50;6.50;;;;;;;;5039988;28;45296;-84
2021/09/20 15:58:48;;;;;;;;;23.50;20.25;;;;;;;;5028424;28;48154;-84
2021/09/20 16:01:13;;;;;;;;;8.25;8.25;;;;;;;;5029063;28;45601;-84
2021/09/20 16:03:39;;;;;;;;;10.75;10.00;;;;;;;;5020781;28;45611;-83
2021/09/20 16:06:04;;;;;;;;;10.00;8.75;;;;;;;;5043981;28;45303;-84
2021/09/20 16:08:29;;;;;;;;;9.00;7.75;;;;;;;;5043422;28;45767;-84
2021/09/20 16:10:55;;;;;;;;;10.33;7.33;;;;;;;;5019548;28;45333;-83
2021/09/20 16:13:20;;;;;;;;;8.25;8.00;;;;;;;;5040291;28;45664;-83
2021/09/20 16:15:46;;;;;;;;;7.75;7.75;;;;;;;;5020248;28;45555;-84
2021/09/20 16:18:11;;;;;;;;;10.25;9.00;;;;;;;;5039788;28;45515;-84
2021/09/20 16:20:37;;;;;;;;;7.50;7.50;;;;;;;;5044650;28;45434;-83
2021/09/20 16:23:02;;;;;;;;;7.50;6.00;;;;;;;;5055161;28;45572;-84
2021/09/20 16:25:27;;;;;;;;;9.25;7.50;;;;;;;;5041896;28;45675;-84
2021/09/20 16:27:55;;;;;;;;;8.00;6.75;;;;;;;;5043323;28;45375;-84
2021/09/20 16:30:21;;;;;;;;;8.50;7.00;;;;;;;;5042890;28;45525;-85
2021/09/20 16:32:47;;;;;;;;;6.75;6.00;;;;;;;;5043877;28;45398;-85
2021/09/20 16:35:13;;;;;;;;;9.00;8.25;;;;;;;;5040502;28;45305;-85
2021/09/20 16:37:38;;;;;;;;;9.00;6.50;;;;;;;;5044768;28;45395;-85
2021/09/20 16:40:05;;;;;;;;;7.00;6.00;;;;;;;;5034734;28;44715;-88
2021/09/20 16:42:33;;;;;;;;;8.00;8.00;;;;;;;;5038400;28;45331;-89
2021/09/20 16:45:03;;;;;;;;;6.00;6.00;;;;;;;;5040729;28;45345;-88
2021/09/20 16:47:28;;;;;;;;;7.50;7.50;;;;;;;;5044252;28;46437;-89
2021/09/20 16:49:53;;;;;;;;;7.50;7.50;;;;;;;;5044917;28;45300;-88
2021/09/20 16:52:18;;;;;;;;;6.25;6.25;;;;;;;;5026100;28;45461;-89
2021/09/20 16:54:44;;;;;;;;;8.00;6.75;;;;;;;;5028152;28;45318;-88
2021/09/20 16:57:09;;;;;;;;;8.50;7.25;;;;;;;;5034284;28;46590;-88
2021/09/20 16:59:35;;;;;;;;;7.75;6.25;;;;;;;;5029393;28;45320;-86